sensor_id;sensor_type;location;lat;lon;timestamp;temperature;humidity
36292;DHT22;22327;51.208;6.418;2023-03-17T00:02:16;12.10;77.70
36292;DHT22;22327;51.208;6.418;2023-03-17T00:04:42;12.10;77.70
36292;DHT22;22327;51.208;6.418;2023-03-17T00:07:09;12.10;77.80
36292;DHT22;22327;51.208;6.418;2023-03-17T00:09:37;12.10;78.10
36292;DHT22;22327;51.208;6.418;2023-03-17T00:12:08;12.10;77.90
36292;DHT22;22327;51.208;6.418;2023-03-17T00:14:35;12.00;77.90
36292;DHT22;22327;51.208;6.418;2023-03-17T00:17:00;12.00;78.00
36292;DHT22;22327;51.208;6.418;2023-03-17T00:19:30;12.00;78.10
36292;DHT22;22327;51.208;6.418;2023-03-17T00:21:58;11.90;78.30
36292;DHT22;22327;51.208;6.418;2023-03-17T00:24:24;11.90;78.20
36292;DHT22;22327;51.208;6.418;2023-03-17T00:26:50;11.90;78.20
36292;DHT22;22327;51.208;6.418;2023-03-17T00:29:15;11.80;78.00
36292;DHT22;22327;51.208;6.418;2023-03-17T00:31:43;11.90;78.30
36292;DHT22;22327;51.208;6.418;2023-03-17T00:34:16;11.90;78.30
36292;DHT22;22327;51.208;6.418;2023-03-17T00:36:45;11.80;78.50
36292;DHT22;22327;51.208;6.418;2023-03-17T00:39:14;11.70;78.70
36292;DHT22;22327;51.208;6.418;2023-03-17T00:41:41;11.70;78.90
36292;DHT22;22327;51.208;6.418;2023-03-17T00:44:06;11.70;79.10
36292;DHT22;22327;51.208;6.418;2023-03-17T00:46:32;11.60;79.10
36292;DHT22;22327;51.208;6.418;2023-03-17T00:49:16;11.60;79.10
36292;DHT22;22327;51.208;6.418;2023-03-17T00:51:43;11.60;79.30
36292;DHT22;22327;51.208;6.418;2023-03-17T00:54:09;11.50;79.40
36292;DHT22;22327;51.208;6.418;2023-03-17T00:56:36;11.50;79.40
36292;DHT22;22327;51.208;6.418;2023-03-17T00:59:02;11.50;79.10
36292;DHT22;22327;51.208;6.418;2023-03-17T01:01:28;11.50;79.00
36292;DHT22;22327;51.208;6.418;2023-03-17T01:03:54;11.50;79.10
36292;DHT22;22327;51.208;6.418;2023-03-17T01:06:20;11.50;79.10
36292;DHT22;22327;51.208;6.418;2023-03-17T01:08:45;11.50;79.10
36292;DHT22;22327;51.208;6.418;2023-03-17T01:11:16;11.50;79.00
36292;DHT22;22327;51.208;6.418;2023-03-17T01:13:45;11.50;78.80
36292;DHT22;22327;51.208;6.418;2023-03-17T01:16:11;11.50;78.80
36292;DHT22;22327;51.208;6.418;2023-03-17T01:18:37;11.50;78.90
36292;DHT22;22327;51.208;6.418;2023-03-17T01:21:03;11.50;79.10
36292;DHT22;22327;51.208;6.418;2023-03-17T01:23:29;11.50;79.00
36292;DHT22;22327;51.208;6.418;2023-03-17T01:25:55;11.50;79.20
36292;DHT22;22327;51.208;6.418;2023-03-17T01:28:21;11.40;79.20
36292;DHT22;22327;51.208;6.418;2023-03-17T01:30:47;11.40;79.30
36292;DHT22;22327;51.208;6.418;2023-03-17T01:33:14;11.40;79.30
36292;DHT22;22327;51.208;6.418;2023-03-17T01:35:40;11.40;79.70
36292;DHT22;22327;51.208;6.418;2023-03-17T01:38:06;11.40;79.80
36292;DHT22;22327;51.208;6.418;2023-03-17T01:40:40;11.40;79.90
36292;DHT22;22327;51.208;6.418;2023-03-17T01:48:40;11.30;79.80
36292;DHT22;22327;51.208;6.418;2023-03-17T01:51:09;11.30;80.00
36292;DHT22;22327;51.208;6.418;2023-03-17T01:53:36;11.30;80.20
36292;DHT22;22327;51.208;6.418;2023-03-17T01:56:03;11.30;80.40
36292;DHT22;22327;51.208;6.418;2023-03-17T01:58:29;11.30;80.20
36292;DHT22;22327;51.208;6.418;2023-03-17T02:00:56;11.30;80.30
36292;DHT22;22327;51.208;6.418;2023-03-17T02:03:21;11.30;80.20
36292;DHT22;22327;51.208;6.418;2023-03-17T02:05:50;11.30;80.40
36292;DHT22;22327;51.208;6.418;2023-03-17T02:08:16;11.30;80.10
36292;DHT22;22327;51.208;6.418;2023-03-17T02:10:43;11.30;80.20
36292;DHT22;22327;51.208;6.418;2023-03-17T02:13:12;11.30;80.30
36292;DHT22;22327;51.208;6.418;2023-03-17T02:15:42;11.30;80.30
36292;DHT22;22327;51.208;6.418;2023-03-17T02:18:09;11.20;80.50
36292;DHT22;22327;51.208;6.418;2023-03-17T02:23:04;11.10;80.80
36292;DHT22;22327;51.208;6.418;2023-03-17T02:25:30;11.10;81.00
36292;DHT22;22327;51.208;6.418;2023-03-17T02:28:09;11.00;81.10
36292;DHT22;22327;51.208;6.418;2023-03-17T02:30:37;11.00;81.20
36292;DHT22;22327;51.208;6.418;2023-03-17T02:33:03;11.00;81.50
36292;DHT22;22327;51.208;6.418;2023-03-17T02:35:29;10.90;81.50
36292;DHT22;22327;51.208;6.418;2023-03-17T02:37:55;10.90;81.90
36292;DHT22;22327;51.208;6.418;2023-03-17T02:40:21;10.90;82.10
36292;DHT22;22327;51.208;6.418;2023-03-17T02:42:47;10.80;82.10
36292;DHT22;22327;51.208;6.418;2023-03-17T02:45:13;10.80;82.20
36292;DHT22;22327;51.208;6.418;2023-03-17T02:47:39;10.80;82.30
36292;DHT22;22327;51.208;6.418;2023-03-17T02:50:06;10.80;82.60
36292;DHT22;22327;51.208;6.418;2023-03-17T02:52:32;10.80;82.70
36292;DHT22;22327;51.208;6.418;2023-03-17T02:54:58;10.70;82.60
36292;DHT22;22327;51.208;6.418;2023-03-17T02:57:23;10.70;82.80
36292;DHT22;22327;51.208;6.418;2023-03-17T02:59:49;10.70;83.00
36292;DHT22;22327;51.208;6.418;2023-03-17T03:02:15;10.70;83.10
36292;DHT22;22327;51.208;6.418;2023-03-17T03:04:42;10.70;83.20
36292;DHT22;22327;51.208;6.418;2023-03-17T03:07:08;10.70;83.30
36292;DHT22;22327;51.208;6.418;2023-03-17T03:09:34;10.60;83.30
36292;DHT22;22327;51.208;6.418;2023-03-17T03:12:00;10.60;83.50
36292;DHT22;22327;51.208;6.418;2023-03-17T03:14:26;10.70;83.50
36292;DHT22;22327;51.208;6.418;2023-03-17T03:16:51;10.60;83.60
36292;DHT22;22327;51.208;6.418;2023-03-17T03:19:17;10.60;83.80
36292;DHT22;22327;51.208;6.418;2023-03-17T03:21:43;10.60;84.10
36292;DHT22;22327;51.208;6.418;2023-03-17T03:24:08;10.60;84.10
36292;DHT22;22327;51.208;6.418;2023-03-17T03:26:35;10.50;84.00
36292;DHT22;22327;51.208;6.418;2023-03-17T03:29:01;10.50;84.20
36292;DHT22;22327;51.208;6.418;2023-03-17T03:31:27;10.50;84.30
36292;DHT22;22327;51.208;6.418;2023-03-17T03:33:52;10.50;84.40
36292;DHT22;22327;51.208;6.418;2023-03-17T03:36:18;10.50;84.40
36292;DHT22;22327;51.208;6.418;2023-03-17T03:38:44;10.50;84.50
36292;DHT22;22327;51.208;6.418;2023-03-17T03:41:10;10.50;84.80
36292;DHT22;22327;51.208;6.418;2023-03-17T03:43:36;10.50;84.70
36292;DHT22;22327;51.208;6.418;2023-03-17T03:46:02;10.40;84.70
36292;DHT22;22327;51.208;6.418;2023-03-17T03:48:28;10.40;85.50
36292;DHT22;22327;51.208;6.418;2023-03-17T03:50:58;10.40;85.00
36292;DHT22;22327;51.208;6.418;2023-03-17T03:53:24;10.40;85.00
36292;DHT22;22327;51.208;6.418;2023-03-17T03:55:50;10.40;85.00
36292;DHT22;22327;51.208;6.418;2023-03-17T03:58:15;10.40;85.00
36292;DHT22;22327;51.208;6.418;2023-03-17T04:00:41;10.40;85.00
36292;DHT22;22327;51.208;6.418;2023-03-17T04:03:06;10.40;85.20
36292;DHT22;22327;51.208;6.418;2023-03-17T04:05:32;10.40;85.40
36292;DHT22;22327;51.208;6.418;2023-03-17T04:07:58;10.40;85.50
36292;DHT22;22327;51.208;6.418;2023-03-17T04:10:24;10.30;85.50
36292;DHT22;22327;51.208;6.418;2023-03-17T04:12:49;10.30;85.50
36292;DHT22;22327;51.208;6.418;2023-03-17T04:15:16;10.30;85.50
36292;DHT22;22327;51.208;6.418;2023-03-17T04:17:43;10.30;85.70
36292;DHT22;22327;51.208;6.418;2023-03-17T04:20:10;10.30;85.70
36292;DHT22;22327;51.208;6.418;2023-03-17T04:22:35;10.30;85.80
36292;DHT22;22327;51.208;6.418;2023-03-17T04:25:01;10.30;85.90
36292;DHT22;22327;51.208;6.418;2023-03-17T04:27:27;10.30;85.90
36292;DHT22;22327;51.208;6.418;2023-03-17T04:29:53;10.30;85.90
36292;DHT22;22327;51.208;6.418;2023-03-17T04:32:18;10.30;86.00
36292;DHT22;22327;51.208;6.418;2023-03-17T04:34:44;10.30;86.00
36292;DHT22;22327;51.208;6.418;2023-03-17T04:37:10;10.30;86.00
36292;DHT22;22327;51.208;6.418;2023-03-17T04:39:37;10.30;86.00
36292;DHT22;22327;51.208;6.418;2023-03-17T04:42:03;10.40;86.00
36292;DHT22;22327;51.208;6.418;2023-03-17T04:44:29;10.30;85.80
36292;DHT22;22327;51.208;6.418;2023-03-17T04:46:55;10.40;86.00
36292;DHT22;22327;51.208;6.418;2023-03-17T04:49:20;10.40;86.20
36292;DHT22;22327;51.208;6.418;2023-03-17T04:51:46;10.30;86.20
36292;DHT22;22327;51.208;6.418;2023-03-17T04:54:12;10.30;86.10
36292;DHT22;22327;51.208;6.418;2023-03-17T04:56:38;10.40;86.30
36292;DHT22;22327;51.208;6.418;2023-03-17T04:59:03;10.40;86.20
36292;DHT22;22327;51.208;6.418;2023-03-17T05:01:29;10.30;86.20
36292;DHT22;22327;51.208;6.418;2023-03-17T05:03:54;10.40;86.40
36292;DHT22;22327;51.208;6.418;2023-03-17T05:06:20;10.30;86.40
36292;DHT22;22327;51.208;6.418;2023-03-17T05:08:46;10.30;86.40
36292;DHT22;22327;51.208;6.418;2023-03-17T05:11:12;10.30;86.50
36292;DHT22;22327;51.208;6.418;2023-03-17T05:13:38;10.30;86.50
36292;DHT22;22327;51.208;6.418;2023-03-17T05:16:06;10.30;86.50
36292;DHT22;22327;51.208;6.418;2023-03-17T05:18:32;10.30;86.50
36292;DHT22;22327;51.208;6.418;2023-03-17T05:20:57;10.30;86.50
36292;DHT22;22327;51.208;6.418;2023-03-17T05:23:23;10.30;86.70
36292;DHT22;22327;51.208;6.418;2023-03-17T05:25:50;10.30;86.80
36292;DHT22;22327;51.208;6.418;2023-03-17T05:28:17;10.20;86.90
36292;DHT22;22327;51.208;6.418;2023-03-17T05:30:43;10.30;87.00
36292;DHT22;22327;51.208;6.418;2023-03-17T05:33:10;10.30;86.80
36292;DHT22;22327;51.208;6.418;2023-03-17T05:35:36;10.20;86.90
36292;DHT22;22327;51.208;6.418;2023-03-17T05:38:02;10.30;87.00
36292;DHT22;22327;51.208;6.418;2023-03-17T05:40:28;10.20;87.00
36292;DHT22;22327;51.208;6.418;2023-03-17T05:42:54;10.20;87.00
36292;DHT22;22327;51.208;6.418;2023-03-17T05:45:20;10.20;87.20
36292;DHT22;22327;51.208;6.418;2023-03-17T05:47:46;10.20;87.20
36292;DHT22;22327;51.208;6.418;2023-03-17T05:50:11;10.20;87.50
36292;DHT22;22327;51.208;6.418;2023-03-17T05:52:38;10.10;87.30
36292;DHT22;22327;51.208;6.418;2023-03-17T05:55:05;10.10;87.70
36292;DHT22;22327;51.208;6.418;2023-03-17T05:57:31;10.10;87.80
36292;DHT22;22327;51.208;6.418;2023-03-17T05:59:57;10.20;87.70
36292;DHT22;22327;51.208;6.418;2023-03-17T06:02:23;10.20;87.70
36292;DHT22;22327;51.208;6.418;2023-03-17T06:04:48;10.20;87.70
36292;DHT22;22327;51.208;6.418;2023-03-17T06:07:14;10.30;87.70
36292;DHT22;22327;51.208;6.418;2023-03-17T06:09:40;10.30;87.60
36292;DHT22;22327;51.208;6.418;2023-03-17T06:12:06;10.30;87.40
36292;DHT22;22327;51.208;6.418;2023-03-17T06:14:32;10.30;87.20
36292;DHT22;22327;51.208;6.418;2023-03-17T06:16:58;10.40;87.30
36292;DHT22;22327;51.208;6.418;2023-03-17T06:19:23;10.40;87.10
36292;DHT22;22327;51.208;6.418;2023-03-17T06:21:49;10.50;87.10
36292;DHT22;22327;51.208;6.418;2023-03-17T06:24:15;10.50;87.10
36292;DHT22;22327;51.208;6.418;2023-03-17T06:26:40;10.60;86.70
36292;DHT22;22327;51.208;6.418;2023-03-17T06:29:07;10.60;86.50
36292;DHT22;22327;51.208;6.418;2023-03-17T06:31:34;10.70;86.20
36292;DHT22;22327;51.208;6.418;2023-03-17T06:34:00;10.80;86.30
36292;DHT22;22327;51.208;6.418;2023-03-17T06:36:25;10.90;85.80
36292;DHT22;22327;51.208;6.418;2023-03-17T06:38:51;11.00;85.50
36292;DHT22;22327;51.208;6.418;2023-03-17T06:41:16;11.10;85.30
36292;DHT22;22327;51.208;6.418;2023-03-17T06:43:43;11.20;85.10
36292;DHT22;22327;51.208;6.418;2023-03-17T06:46:09;11.30;84.70
36292;DHT22;22327;51.208;6.418;2023-03-17T06:48:34;11.50;84.30
36292;DHT22;22327;51.208;6.418;2023-03-17T06:51:00;11.70;83.70
36292;DHT22;22327;51.208;6.418;2023-03-17T06:53:26;11.80;82.70
36292;DHT22;22327;51.208;6.418;2023-03-17T06:55:51;11.90;82.00
36292;DHT22;22327;51.208;6.418;2023-03-17T06:58:17;12.00;82.40
36292;DHT22;22327;51.208;6.418;2023-03-17T07:00:45;12.10;81.60
36292;DHT22;22327;51.208;6.418;2023-03-17T07:03:11;12.40;80.90
36292;DHT22;22327;51.208;6.418;2023-03-17T07:05:36;12.50;80.20
36292;DHT22;22327;51.208;6.418;2023-03-17T07:08:04;12.70;79.70
36292;DHT22;22327;51.208;6.418;2023-03-17T07:10:29;12.90;79.50
36292;DHT22;22327;51.208;6.418;2023-03-17T07:12:55;13.20;78.30
36292;DHT22;22327;51.208;6.418;2023-03-17T07:15:21;13.30;77.20
36292;DHT22;22327;51.208;6.418;2023-03-17T07:17:46;13.40;77.70
36292;DHT22;22327;51.208;6.418;2023-03-17T07:20:12;13.40;76.50
36292;DHT22;22327;51.208;6.418;2023-03-17T07:22:39;13.50;76.30
36292;DHT22;22327;51.208;6.418;2023-03-17T07:25:05;13.60;76.00
36292;DHT22;22327;51.208;6.418;2023-03-17T07:27:32;13.50;75.50
36292;DHT22;22327;51.208;6.418;2023-03-17T07:29:57;13.40;76.20
36292;DHT22;22327;51.208;6.418;2023-03-17T07:32:26;13.50;76.70
36292;DHT22;22327;51.208;6.418;2023-03-17T07:34:52;13.60;76.30
36292;DHT22;22327;51.208;6.418;2023-03-17T07:37:18;13.70;76.50
36292;DHT22;22327;51.208;6.418;2023-03-17T07:39:43;13.90;75.80
36292;DHT22;22327;51.208;6.418;2023-03-17T07:42:13;14.00;75.00
36292;DHT22;22327;51.208;6.418;2023-03-17T07:44:39;14.10;74.70
36292;DHT22;22327;51.208;6.418;2023-03-17T07:47:06;14.10;74.70
36292;DHT22;22327;51.208;6.418;2023-03-17T07:49:32;14.10;74.50
36292;DHT22;22327;51.208;6.418;2023-03-17T07:51:57;14.10;74.30
36292;DHT22;22327;51.208;6.418;2023-03-17T07:54:23;14.00;74.50
36292;DHT22;22327;51.208;6.418;2023-03-17T07:56:51;14.10;75.30
36292;DHT22;22327;51.208;6.418;2023-03-17T07:59:17;14.10;75.10
36292;DHT22;22327;51.208;6.418;2023-03-17T08:01:43;14.00;75.20
36292;DHT22;22327;51.208;6.418;2023-03-17T08:04:09;14.00;75.00
36292;DHT22;22327;51.208;6.418;2023-03-17T08:06:37;14.00;75.40
36292;DHT22;22327;51.208;6.418;2023-03-17T08:09:04;14.00;75.60
36292;DHT22;22327;51.208;6.418;2023-03-17T08:11:30;14.10;75.70
36292;DHT22;22327;51.208;6.418;2023-03-17T08:14:00;14.10;75.20
36292;DHT22;22327;51.208;6.418;2023-03-17T08:16:27;14.30;75.20
36292;DHT22;22327;51.208;6.418;2023-03-17T08:18:53;14.50;74.80
36292;DHT22;22327;51.208;6.418;2023-03-17T08:21:19;14.70;74.30
36292;DHT22;22327;51.208;6.418;2023-03-17T08:23:45;14.80;73.30
36292;DHT22;22327;51.208;6.418;2023-03-17T08:26:11;14.90;72.90
36292;DHT22;22327;51.208;6.418;2023-03-17T08:28:38;15.10;72.10
36292;DHT22;22327;51.208;6.418;2023-03-17T08:31:12;15.20;72.30
36292;DHT22;22327;51.208;6.418;2023-03-17T08:33:39;15.30;71.50
36292;DHT22;22327;51.208;6.418;2023-03-17T08:36:07;15.40;71.30
36292;DHT22;22327;51.208;6.418;2023-03-17T08:38:34;15.50;71.40
36292;DHT22;22327;51.208;6.418;2023-03-17T08:41:05;15.60;70.80
36292;DHT22;22327;51.208;6.418;2023-03-17T08:43:31;15.80;70.20
36292;DHT22;22327;51.208;6.418;2023-03-17T08:46:08;16.10;69.80
36292;DHT22;22327;51.208;6.418;2023-03-17T08:48:36;16.50;68.40
36292;DHT22;22327;51.208;6.418;2023-03-17T08:51:02;16.60;67.30
36292;DHT22;22327;51.208;6.418;2023-03-17T08:53:28;16.70;67.40
36292;DHT22;22327;51.208;6.418;2023-03-17T08:55:55;17.10;65.50
36292;DHT22;22327;51.208;6.418;2023-03-17T08:58:21;17.50;65.70
36292;DHT22;22327;51.208;6.418;2023-03-17T09:00:47;18.00;64.80
36292;DHT22;22327;51.208;6.418;2023-03-17T09:03:13;18.70;62.70
36292;DHT22;22327;51.208;6.418;2023-03-17T09:05:40;19.20;59.30
36292;DHT22;22327;51.208;6.418;2023-03-17T09:08:07;19.80;60.60
36292;DHT22;22327;51.208;6.418;2023-03-17T09:10:33;20.50;56.90
36292;DHT22;22327;51.208;6.418;2023-03-17T09:12:59;20.90;54.00
36292;DHT22;22327;51.208;6.418;2023-03-17T09:15:29;21.20;54.30
36292;DHT22;22327;51.208;6.418;2023-03-17T09:17:55;21.80;54.60
36292;DHT22;22327;51.208;6.418;2023-03-17T09:20:21;22.40;52.40
36292;DHT22;22327;51.208;6.418;2023-03-17T09:22:46;22.70;48.70
36292;DHT22;22327;51.208;6.418;2023-03-17T09:25:14;22.90;49.60
36292;DHT22;22327;51.208;6.418;2023-03-17T09:27:40;23.00;47.00
36292;DHT22;22327;51.208;6.418;2023-03-17T09:30:06;22.90;47.70
36292;DHT22;22327;51.208;6.418;2023-03-17T09:32:32;22.90;47.70
36292;DHT22;22327;51.208;6.418;2023-03-17T09:34:57;23.20;47.50
36292;DHT22;22327;51.208;6.418;2023-03-17T09:37:23;23.30;47.00
36292;DHT22;22327;51.208;6.418;2023-03-17T09:39:48;23.50;46.60
36292;DHT22;22327;51.208;6.418;2023-03-17T09:42:29;23.80;44.80
36292;DHT22;22327;51.208;6.418;2023-03-17T09:45:23;23.70;44.90
36292;DHT22;22327;51.208;6.418;2023-03-17T09:47:58;23.40;44.70
36292;DHT22;22327;51.208;6.418;2023-03-17T09:50:45;23.00;45.20
36292;DHT22;22327;51.208;6.418;2023-03-17T09:53:33;22.90;45.90
36292;DHT22;22327;51.208;6.418;2023-03-17T09:56:14;22.80;46.20
36292;DHT22;22327;51.208;6.418;2023-03-17T09:58:50;22.40;46.20
36292;DHT22;22327;51.208;6.418;2023-03-17T10:01:18;21.80;47.20
36292;DHT22;22327;51.208;6.418;2023-03-17T10:03:45;21.30;48.50
36292;DHT22;22327;51.208;6.418;2023-03-17T10:09:05;20.50;50.00
36292;DHT22;22327;51.208;6.418;2023-03-17T10:19:29;19.90;51.70
36292;DHT22;22327;51.208;6.418;2023-03-17T10:22:02;19.60;52.80
36292;DHT22;22327;51.208;6.418;2023-03-17T10:24:30;19.50;54.10
36292;DHT22;22327;51.208;6.418;2023-03-17T10:27:00;19.60;53.90
36292;DHT22;22327;51.208;6.418;2023-03-17T10:29:28;19.60;53.80
36292;DHT22;22327;51.208;6.418;2023-03-17T10:31:55;19.50;54.00
36292;DHT22;22327;51.208;6.418;2023-03-17T10:34:32;19.50;54.20
36292;DHT22;22327;51.208;6.418;2023-03-17T10:39:26;19.50;54.50
36292;DHT22;22327;51.208;6.418;2023-03-17T10:42:06;19.50;54.10
36292;DHT22;22327;51.208;6.418;2023-03-17T10:44:41;19.40;53.60
36292;DHT22;22327;51.208;6.418;2023-03-17T10:47:32;19.20;54.10
36292;DHT22;22327;51.208;6.418;2023-03-17T10:52:32;19.30;54.30
36292;DHT22;22327;51.208;6.418;2023-03-17T10:55:01;19.40;55.30
36292;DHT22;22327;51.208;6.418;2023-03-17T10:57:29;19.50;55.10
36292;DHT22;22327;51.208;6.418;2023-03-17T10:59:56;19.70;55.00
36292;DHT22;22327;51.208;6.418;2023-03-17T11:02:29;19.80;54.50
36292;DHT22;22327;51.208;6.418;2023-03-17T11:05:14;19.90;54.70
36292;DHT22;22327;51.208;6.418;2023-03-17T11:07:41;20.10;54.90
36292;DHT22;22327;51.208;6.418;2023-03-17T11:10:23;20.30;54.50
36292;DHT22;22327;51.208;6.418;2023-03-17T11:12:59;20.30;54.00
36292;DHT22;22327;51.208;6.418;2023-03-17T11:15:32;20.40;54.90
36292;DHT22;22327;51.208;6.418;2023-03-17T11:18:01;20.50;54.40
36292;DHT22;22327;51.208;6.418;2023-03-17T11:20:49;20.60;54.20
36292;DHT22;22327;51.208;6.418;2023-03-17T11:26:12;20.80;53.10
36292;DHT22;22327;51.208;6.418;2023-03-17T11:28:47;20.80;53.30
36292;DHT22;22327;51.208;6.418;2023-03-17T11:34:10;20.90;52.40
36292;DHT22;22327;51.208;6.418;2023-03-17T11:39:52;21.20;52.50
36292;DHT22;22327;51.208;6.418;2023-03-17T11:42:26;21.10;51.00
36292;DHT22;22327;51.208;6.418;2023-03-17T11:45:03;20.90;51.20
36292;DHT22;22327;51.208;6.418;2023-03-17T11:47:44;20.80;51.80
36292;DHT22;22327;51.208;6.418;2023-03-17T11:50:31;20.70;52.70
36292;DHT22;22327;51.208;6.418;2023-03-17T11:56:09;20.80;52.60
36292;DHT22;22327;51.208;6.418;2023-03-17T11:58:42;20.80;53.00
36292;DHT22;22327;51.208;6.418;2023-03-17T12:01:16;20.80;53.40
36292;DHT22;22327;51.208;6.418;2023-03-17T12:04:06;20.80;53.30
36292;DHT22;22327;51.208;6.418;2023-03-17T12:06:36;20.80;53.00
36292;DHT22;22327;51.208;6.418;2023-03-17T12:11:48;20.90;54.00
36292;DHT22;22327;51.208;6.418;2023-03-17T12:16:48;21.00;54.40
36292;DHT22;22327;51.208;6.418;2023-03-17T12:19:26;21.20;54.10
36292;DHT22;22327;51.208;6.418;2023-03-17T12:22:02;21.30;54.10
36292;DHT22;22327;51.208;6.418;2023-03-17T12:27:08;21.50;53.70
36292;DHT22;22327;51.208;6.418;2023-03-17T12:29:57;21.60;53.10
36292;DHT22;22327;51.208;6.418;2023-03-17T12:32:24;21.50;52.90
36292;DHT22;22327;51.208;6.418;2023-03-17T12:37:18;21.40;53.80
36292;DHT22;22327;51.208;6.418;2023-03-17T12:42:36;21.50;53.50
36292;DHT22;22327;51.208;6.418;2023-03-17T12:45:25;21.50;53.80
36292;DHT22;22327;51.208;6.418;2023-03-17T12:55:44;21.80;53.60
36292;DHT22;22327;51.208;6.418;2023-03-17T12:58:31;21.70;52.70
36292;DHT22;22327;51.208;6.418;2023-03-17T13:04:21;21.40;53.40
36292;DHT22;22327;51.208;6.418;2023-03-17T13:21:09;21.10;54.60
36292;DHT22;22327;51.208;6.418;2023-03-17T13:23:39;21.10;54.20
36292;DHT22;22327;51.208;6.418;2023-03-17T13:26:05;21.10;53.40
36292;DHT22;22327;51.208;6.418;2023-03-17T13:31:35;21.10;54.30
36292;DHT22;22327;51.208;6.418;2023-03-17T13:34:15;21.00;54.10
36292;DHT22;22327;51.208;6.418;2023-03-17T13:43:00;21.00;53.90
36292;DHT22;22327;51.208;6.418;2023-03-17T13:45:39;21.10;54.50
36292;DHT22;22327;51.208;6.418;2023-03-17T13:51:17;21.30;53.10
36292;DHT22;22327;51.208;6.418;2023-03-17T13:53:48;21.30;53.30
36292;DHT22;22327;51.208;6.418;2023-03-17T14:01:30;21.20;52.90
36292;DHT22;22327;51.208;6.418;2023-03-17T14:03:57;21.20;53.20
36292;DHT22;22327;51.208;6.418;2023-03-17T14:06:27;21.20;53.20
36292;DHT22;22327;51.208;6.418;2023-03-17T14:09:08;21.20;53.20
36292;DHT22;22327;51.208;6.418;2023-03-17T14:11:37;21.20;53.80
36292;DHT22;22327;51.208;6.418;2023-03-17T14:17:03;21.20;53.70
36292;DHT22;22327;51.208;6.418;2023-03-17T14:19:31;21.10;53.60
36292;DHT22;22327;51.208;6.418;2023-03-17T14:22:02;21.20;53.70
36292;DHT22;22327;51.208;6.418;2023-03-17T14:24:33;21.20;53.40
36292;DHT22;22327;51.208;6.418;2023-03-17T14:27:04;21.20;53.70
36292;DHT22;22327;51.208;6.418;2023-03-17T14:29:32;21.20;53.80
36292;DHT22;22327;51.208;6.418;2023-03-17T14:32:05;21.20;53.60
36292;DHT22;22327;51.208;6.418;2023-03-17T14:34:31;21.30;53.80
36292;DHT22;22327;51.208;6.418;2023-03-17T14:37:01;21.40;53.80
36292;DHT22;22327;51.208;6.418;2023-03-17T14:39:27;21.50;54.00
36292;DHT22;22327;51.208;6.418;2023-03-17T14:42:00;21.60;53.70
36292;DHT22;22327;51.208;6.418;2023-03-17T14:44:27;21.70;53.70
36292;DHT22;22327;51.208;6.418;2023-03-17T14:47:01;21.60;53.90
36292;DHT22;22327;51.208;6.418;2023-03-17T14:49:27;21.60;54.40
36292;DHT22;22327;51.208;6.418;2023-03-17T14:51:53;21.50;54.30
36292;DHT22;22327;51.208;6.418;2023-03-17T14:54:30;21.40;54.70
36292;DHT22;22327;51.208;6.418;2023-03-17T14:57:01;21.40;54.90
36292;DHT22;22327;51.208;6.418;2023-03-17T14:59:36;21.20;55.10
36292;DHT22;22327;51.208;6.418;2023-03-17T15:02:29;21.10;55.70
36292;DHT22;22327;51.208;6.418;2023-03-17T15:05:16;21.10;55.60
36292;DHT22;22327;51.208;6.418;2023-03-17T15:07:45;21.00;56.00
36292;DHT22;22327;51.208;6.418;2023-03-17T15:10:22;20.90;56.10
36292;DHT22;22327;51.208;6.418;2023-03-17T15:12:59;20.80;56.10
36292;DHT22;22327;51.208;6.418;2023-03-17T15:15:32;20.80;56.50
36292;DHT22;22327;51.208;6.418;2023-03-17T15:18:02;20.80;56.50
36292;DHT22;22327;51.208;6.418;2023-03-17T15:20:29;20.60;56.80
36292;DHT22;22327;51.208;6.418;2023-03-17T15:23:01;20.70;57.20
36292;DHT22;22327;51.208;6.418;2023-03-17T15:25:35;20.80;57.40
36292;DHT22;22327;51.208;6.418;2023-03-17T15:28:04;20.80;57.80
36292;DHT22;22327;51.208;6.418;2023-03-17T15:30:32;20.80;57.40
36292;DHT22;22327;51.208;6.418;2023-03-17T15:32:59;20.80;57.30
36292;DHT22;22327;51.208;6.418;2023-03-17T15:35:25;20.90;56.80
36292;DHT22;22327;51.208;6.418;2023-03-17T15:37:52;20.90;56.80
36292;DHT22;22327;51.208;6.418;2023-03-17T15:40:18;21.00;56.90
36292;DHT22;22327;51.208;6.418;2023-03-17T15:42:44;21.00;56.70
36292;DHT22;22327;51.208;6.418;2023-03-17T15:45:16;21.00;56.50
36292;DHT22;22327;51.208;6.418;2023-03-17T15:47:43;20.90;56.60
36292;DHT22;22327;51.208;6.418;2023-03-17T15:50:17;20.80;57.00
36292;DHT22;22327;51.208;6.418;2023-03-17T15:52:44;20.80;57.30
36292;DHT22;22327;51.208;6.418;2023-03-17T15:55:22;20.80;57.00
36292;DHT22;22327;51.208;6.418;2023-03-17T15:57:48;20.80;57.10
36292;DHT22;22327;51.208;6.418;2023-03-17T16:00:18;20.80;56.90
36292;DHT22;22327;51.208;6.418;2023-03-17T16:02:44;20.80;56.60
36292;DHT22;22327;51.208;6.418;2023-03-17T16:05:21;20.80;57.10
36292;DHT22;22327;51.208;6.418;2023-03-17T16:07:47;20.80;56.90
36292;DHT22;22327;51.208;6.418;2023-03-17T16:10:25;20.60;56.00
36292;DHT22;22327;51.208;6.418;2023-03-17T16:12:51;20.40;55.60
36292;DHT22;22327;51.208;6.418;2023-03-17T16:15:19;20.20;55.90
36292;DHT22;22327;51.208;6.418;2023-03-17T16:17:46;20.20;56.10
36292;DHT22;22327;51.208;6.418;2023-03-17T16:20:42;20.10;56.30
36292;DHT22;22327;51.208;6.418;2023-03-17T16:23:17;20.10;56.50
36292;DHT22;22327;51.208;6.418;2023-03-17T16:25:44;20.00;56.40
36292;DHT22;22327;51.208;6.418;2023-03-17T16:28:21;19.90;56.70
36292;DHT22;22327;51.208;6.418;2023-03-17T16:30:48;19.90;56.80
36292;DHT22;22327;51.208;6.418;2023-03-17T16:33:19;19.80;56.90
36292;DHT22;22327;51.208;6.418;2023-03-17T16:35:45;19.80;57.10
36292;DHT22;22327;51.208;6.418;2023-03-17T16:38:15;19.80;57.30
36292;DHT22;22327;51.208;6.418;2023-03-17T16:40:41;19.80;57.00
36292;DHT22;22327;51.208;6.418;2023-03-17T16:43:24;19.80;57.20
36292;DHT22;22327;51.208;6.418;2023-03-17T16:45:51;19.80;57.20
36292;DHT22;22327;51.208;6.418;2023-03-17T16:48:18;19.80;57.00
36292;DHT22;22327;51.208;6.418;2023-03-17T16:50:44;19.70;56.90
36292;DHT22;22327;51.208;6.418;2023-03-17T16:53:10;19.70;56.80
36292;DHT22;22327;51.208;6.418;2023-03-17T16:55:37;19.50;57.10
36292;DHT22;22327;51.208;6.418;2023-03-17T16:58:28;19.40;57.50
36292;DHT22;22327;51.208;6.418;2023-03-17T17:00:55;19.30;57.50
36292;DHT22;22327;51.208;6.418;2023-03-17T17:03:21;19.20;58.00
36292;DHT22;22327;51.208;6.418;2023-03-17T17:05:47;19.20;58.10
36292;DHT22;22327;51.208;6.418;2023-03-17T17:08:12;19.10;58.40
36292;DHT22;22327;51.208;6.418;2023-03-17T17:10:38;18.90;58.60
36292;DHT22;22327;51.208;6.418;2023-03-17T17:13:06;18.80;58.90
36292;DHT22;22327;51.208;6.418;2023-03-17T17:15:33;18.70;59.30